createdAt,value
2023-03-16T00:01:33.461Z,9.80
2023-03-16T00:04:00.868Z,9.30
2023-03-16T00:06:28.265Z,12.30
2023-03-16T00:08:57.237Z,10.40
2023-03-16T00:11:24.684Z,10.33
2023-03-16T00:13:52.134Z,9.83
2023-03-16T00:16:19.947Z,10.73
2023-03-16T00:18:47.248Z,10.00
2023-03-16T00:21:15.272Z,10.20
2023-03-16T00:23:42.586Z,9.57
2023-03-16T00:26:10.262Z,8.40
2023-03-16T00:28:37.910Z,8.40
2023-03-16T00:31:06.746Z,9.63
2023-03-16T00:33:36.760Z,9.70
2023-03-16T00:36:04.912Z,9.13
2023-03-16T00:38:34.645Z,11.80
2023-03-16T00:41:04.235Z,10.53
2023-03-16T00:43:37.046Z,12.70
2023-03-16T00:46:06.012Z,10.90
2023-03-16T00:48:34.422Z,10.07
2023-03-16T00:51:06.442Z,9.90
2023-03-16T00:53:34.321Z,12.70
2023-03-16T00:56:03.482Z,13.20
2023-03-16T00:58:33.047Z,9.93
2023-03-16T01:01:01.968Z,11.63
2023-03-16T01:03:29.324Z,13.10
2023-03-16T01:06:00.053Z,10.13
2023-03-16T01:08:30.629Z,10.90
2023-03-16T01:10:59.442Z,10.47
2023-03-16T01:13:26.849Z,11.93
2023-03-16T01:15:54.127Z,10.47
2023-03-16T01:18:22.234Z,11.40
2023-03-16T01:20:50.944Z,8.80
2023-03-16T01:23:18.938Z,10.03
2023-03-16T01:25:50.608Z,14.30
2023-03-16T01:28:18.911Z,12.37
2023-03-16T01:30:46.281Z,10.80
2023-03-16T01:33:13.940Z,11.03
2023-03-16T01:35:41.259Z,13.63
2023-03-16T01:38:08.687Z,10.70
2023-03-16T01:40:37.783Z,12.60
2023-03-16T01:43:05.743Z,11.33
2023-03-16T01:45:52.550Z,9.60
2023-03-16T01:48:24.113Z,11.50
2023-03-16T01:50:52.325Z,12.63
2023-03-16T01:53:21.140Z,13.80
2023-03-16T01:55:48.943Z,11.73
2023-03-16T01:58:16.388Z,16.13
2023-03-16T02:00:45.495Z,12.50
2023-03-16T02:03:14.852Z,14.27
2023-03-16T02:05:46.625Z,12.73
2023-03-16T02:08:14.241Z,14.87
2023-03-16T02:10:41.638Z,14.43
2023-03-16T02:13:09.273Z,19.23
2023-03-16T02:15:36.625Z,16.90
2023-03-16T02:18:04.610Z,17.93
2023-03-16T02:20:45.717Z,19.07
2023-03-16T02:23:16.235Z,18.23
2023-03-16T02:25:45.088Z,18.17
2023-03-16T02:28:15.217Z,23.00
2023-03-16T02:30:42.580Z,22.83
2023-03-16T02:33:10.916Z,21.50
2023-03-16T02:35:38.320Z,20.47
2023-03-16T02:38:05.784Z,22.77
2023-03-16T02:40:33.903Z,23.33
2023-03-16T02:43:05.673Z,22.47
2023-03-16T02:45:40.217Z,23.00
2023-03-16T02:48:09.145Z,26.13
2023-03-16T02:50:36.997Z,30.17
2023-03-16T02:53:04.329Z,24.90
2023-03-16T02:55:31.656Z,26.90
2023-03-16T02:57:59.016Z,25.50
2023-03-16T03:00:26.762Z,30.73
2023-03-16T03:02:54.333Z,24.63
2023-03-16T03:05:21.643Z,26.43
2023-03-16T03:07:48.988Z,27.53
2023-03-16T03:10:16.629Z,27.13
2023-03-16T03:12:43.903Z,32.67
2023-03-16T03:15:11.832Z,26.17
2023-03-16T03:17:39.187Z,26.63
2023-03-16T03:20:08.451Z,32.40
2023-03-16T03:22:35.784Z,25.23
2023-03-16T03:25:03.161Z,26.17
2023-03-16T03:27:30.544Z,24.67
2023-03-16T03:29:58.041Z,26.67
2023-03-16T03:32:26.233Z,26.87
2023-03-16T03:34:53.541Z,27.00
2023-03-16T03:37:20.820Z,25.50
2023-03-16T03:39:48.187Z,27.70
2023-03-16T03:42:15.515Z,22.83
2023-03-16T03:44:42.865Z,24.17
2023-03-16T03:47:10.652Z,23.63
2023-03-16T03:49:38.016Z,22.00
2023-03-16T03:52:05.369Z,26.23
2023-03-16T03:54:32.780Z,27.60
2023-03-16T03:57:00.142Z,22.70
2023-03-16T03:59:27.554Z,25.67
2023-03-16T04:01:54.898Z,24.80
2023-03-16T04:04:22.267Z,26.47
2023-03-16T04:06:51.085Z,23.67
2023-03-16T04:09:18.459Z,29.43
2023-03-16T04:11:45.804Z,27.97
2023-03-16T04:14:13.134Z,26.90
2023-03-16T04:16:40.503Z,27.70
2023-03-16T04:19:07.835Z,25.30
2023-03-16T04:21:35.166Z,24.87
2023-03-16T04:24:04.158Z,22.27
2023-03-16T04:26:32.125Z,27.10
2023-03-16T04:28:59.461Z,25.53
2023-03-16T04:31:26.873Z,23.50
2023-03-16T04:33:54.542Z,21.17
2023-03-16T04:36:23.523Z,22.87
2023-03-16T04:38:51.566Z,24.60
2023-03-16T04:41:19.066Z,23.53
2023-03-16T04:43:46.460Z,21.67
2023-03-16T04:46:13.906Z,21.73
2023-03-16T04:48:41.343Z,22.33
2023-03-16T04:51:08.692Z,22.50
2023-03-16T04:53:36.416Z,20.83
2023-03-16T04:56:04.207Z,22.63
2023-03-16T04:58:31.729Z,19.80
2023-03-16T05:00:59.100Z,18.83
2023-03-16T05:03:26.420Z,26.47
2023-03-16T05:05:53.742Z,22.77
2023-03-16T05:08:21.063Z,23.27
2023-03-16T05:10:48.518Z,21.33
2023-03-16T05:13:15.869Z,25.20
2023-03-16T05:15:43.604Z,19.83
2023-03-16T05:18:11.029Z,21.77
2023-03-16T05:20:38.379Z,21.50
2023-03-16T05:23:07.381Z,20.67
2023-03-16T05:25:35.071Z,18.03
2023-03-16T05:28:02.442Z,20.53
2023-03-16T05:30:31.068Z,20.67
2023-03-16T05:32:58.496Z,25.60
2023-03-16T05:35:25.842Z,23.40
2023-03-16T05:37:53.168Z,21.80
2023-03-16T05:40:22.152Z,22.90
2023-03-16T05:42:50.764Z,19.30
2023-03-16T05:45:18.361Z,19.87
2023-03-16T05:47:45.640Z,21.30
2023-03-16T05:50:13.634Z,20.83
2023-03-16T05:52:41.443Z,21.00
2023-03-16T05:55:09.467Z,21.67
2023-03-16T05:57:36.989Z,23.10
2023-03-16T06:00:13.009Z,24.27
2023-03-16T06:02:40.868Z,24.77
2023-03-16T06:05:08.314Z,25.17
2023-03-16T06:07:35.886Z,19.53
2023-03-16T06:10:03.203Z,19.00
2023-03-16T06:12:30.548Z,20.60
2023-03-16T06:14:57.961Z,20.57
2023-03-16T06:17:25.305Z,19.07
2023-03-16T06:19:52.631Z,27.17
2023-03-16T06:22:20.161Z,19.60
2023-03-16T06:24:47.622Z,17.83
2023-03-16T06:27:14.954Z,16.40
2023-03-16T06:29:42.278Z,19.47
2023-03-16T06:32:09.622Z,15.50
2023-03-16T06:34:38.256Z,17.40
2023-03-16T06:37:05.685Z,16.90
2023-03-16T06:39:33.041Z,18.60
2023-03-16T06:42:00.380Z,14.13
2023-03-16T06:44:27.773Z,15.37
2023-03-16T06:46:55.121Z,17.07
2023-03-16T06:49:22.441Z,14.30
2023-03-16T06:51:49.733Z,21.03
2023-03-16T06:54:17.055Z,15.40
2023-03-16T06:56:46.302Z,14.60
2023-03-16T06:59:13.392Z,12.93
2023-03-16T07:01:41.993Z,13.20
2023-03-16T07:04:09.403Z,9.50
2023-03-16T07:06:36.770Z,11.50
2023-03-16T07:09:04.948Z,10.97
2023-03-16T07:11:32.803Z,11.40
2023-03-16T07:14:00.180Z,12.70
2023-03-16T07:16:28.066Z,13.87
2023-03-16T07:18:55.441Z,15.13
2023-03-16T07:21:22.773Z,10.53
2023-03-16T07:23:51.559Z,13.27
2023-03-16T07:26:19.234Z,10.10
2023-03-16T07:28:46.612Z,11.30
2023-03-16T07:31:14.634Z,9.60
2023-03-16T07:33:42.023Z,13.20
2023-03-16T07:36:10.476Z,12.20
2023-03-16T07:38:37.819Z,9.77
2023-03-16T07:41:05.249Z,11.10
2023-03-16T07:43:33.266Z,10.50
2023-03-16T07:46:01.359Z,10.20
2023-03-16T07:48:28.842Z,10.37
2023-03-16T07:50:56.293Z,10.77
2023-03-16T07:53:23.784Z,10.20
2023-03-16T07:55:51.115Z,10.80
2023-03-16T07:58:18.451Z,8.93
2023-03-16T08:00:45.800Z,11.50
2023-03-16T08:03:13.591Z,11.33
2023-03-16T08:05:41.487Z,9.23
2023-03-16T08:08:09.509Z,10.30
2023-03-16T08:10:37.107Z,9.10
2023-03-16T08:13:04.975Z,9.67
2023-03-16T08:15:34.151Z,9.30
2023-03-16T08:18:06.414Z,8.80
2023-03-16T08:20:34.115Z,9.77
2023-03-16T08:23:01.459Z,10.40
2023-03-16T08:25:28.827Z,13.90
2023-03-16T08:27:57.914Z,12.77
2023-03-16T08:30:26.773Z,11.40
2023-03-16T08:32:54.347Z,10.10
2023-03-16T08:35:21.667Z,11.03
2023-03-16T08:37:49.322Z,9.70
2023-03-16T08:40:21.285Z,8.93
2023-03-16T08:42:50.001Z,9.93
2023-03-16T08:45:19.159Z,9.70
2023-03-16T08:47:46.485Z,10.63
2023-03-16T08:50:15.404Z,10.23
2023-03-16T08:52:43.418Z,10.20
2023-03-16T08:55:11.098Z,10.00
2023-03-16T08:57:39.068Z,10.10
2023-03-16T09:00:13.276Z,11.93
2023-03-16T09:02:43.747Z,10.93
2023-03-16T09:05:12.351Z,10.90
2023-03-16T09:07:39.753Z,11.90
2023-03-16T09:10:07.757Z,10.53
2023-03-16T09:12:38.463Z,10.30
2023-03-16T09:15:06.327Z,10.10
2023-03-16T09:17:34.509Z,12.00
2023-03-16T09:20:15.438Z,10.50
2023-03-16T09:22:31.590Z,11.47
2023-03-16T09:24:58.988Z,12.87
2023-03-16T09:27:26.364Z,12.77
2023-03-16T09:29:55.292Z,12.13
2023-03-16T09:32:23.053Z,10.93
2023-03-16T09:34:50.592Z,11.20
2023-03-16T09:37:17.915Z,13.03
2023-03-16T09:39:47.113Z,11.37
2023-03-16T09:42:16.083Z,14.13
2023-03-16T09:44:51.421Z,10.90
2023-03-16T09:47:20.291Z,11.73
2023-03-16T09:49:48.389Z,11.97
2023-03-16T09:52:33.955Z,11.73
2023-03-16T09:55:03.346Z,11.63
2023-03-16T09:57:32.031Z,11.43
2023-03-16T10:00:00.935Z,12.53
2023-03-16T10:02:46.421Z,13.73
2023-03-16T10:05:15.809Z,11.27
2023-03-16T10:08:01.752Z,21.30
2023-03-16T10:10:39.800Z,16.60
2023-03-16T10:13:09.150Z,11.70
2023-03-16T10:15:37.851Z,13.10
2023-03-16T10:18:13.557Z,11.97
2023-03-16T10:20:41.761Z,13.00
2023-03-16T10:23:10.620Z,12.93
2023-03-16T10:25:45.418Z,12.77
2023-03-16T10:28:17.536Z,13.07
2023-03-16T10:30:45.261Z,12.17
2023-03-16T10:33:19.831Z,12.87
2023-03-16T10:35:48.804Z,13.77
2023-03-16T10:38:30.660Z,12.40
2023-03-16T10:40:58.063Z,13.60
2023-03-16T10:43:25.641Z,13.47
2023-03-16T10:45:55.231Z,14.70
2023-03-16T10:48:23.137Z,13.63
2023-03-16T10:50:52.062Z,12.60
2023-03-16T10:53:20.967Z,13.30
2023-03-16T10:55:50.163Z,18.20
2023-03-16T10:58:21.919Z,15.30
2023-03-16T11:00:49.253Z,14.00
2023-03-16T11:03:24.943Z,14.20
2023-03-16T11:06:05.630Z,14.87
2023-03-16T11:08:37.446Z,11.80
2023-03-16T11:11:06.441Z,15.77
2023-03-16T11:13:34.834Z,12.80
2023-03-16T11:16:06.888Z,14.87
2023-03-16T11:18:38.927Z,14.40
2023-03-16T11:21:07.813Z,13.87
2023-03-16T11:23:36.682Z,13.40
2023-03-16T11:26:05.563Z,13.13
2023-03-16T11:28:38.551Z,13.03
2023-03-16T11:31:10.618Z,14.23
2023-03-16T11:33:37.980Z,12.20
2023-03-16T11:36:13.026Z,13.00
2023-03-16T11:38:41.872Z,16.00
2023-03-16T11:41:16.840Z,13.47
2023-03-16T11:43:51.707Z,13.13
2023-03-16T11:46:27.223Z,14.27
2023-03-16T11:49:02.017Z,13.23
2023-03-16T11:51:43.070Z,15.20
2023-03-16T11:54:11.962Z,13.90
2023-03-16T11:56:40.430Z,13.20
2023-03-16T11:59:15.173Z,12.47
2023-03-16T12:01:54.332Z,15.70
2023-03-16T12:04:29.540Z,13.50
2023-03-16T12:07:00.176Z,11.70
2023-03-16T12:09:47.388Z,12.70
2023-03-16T12:12:18.920Z,11.17
2023-03-16T12:14:50.708Z,11.90
2023-03-16T12:17:22.487Z,14.13
2023-03-16T12:19:54.200Z,14.00
2023-03-16T12:22:23.246Z,14.27
2023-03-16T12:24:50.600Z,11.27
2023-03-16T12:27:31.698Z,13.73
2023-03-16T12:30:18.692Z,15.17
2023-03-16T12:32:51.857Z,13.93
2023-03-16T12:35:27.140Z,13.23
2023-03-16T12:38:01.946Z,11.73
2023-03-16T12:40:40.396Z,12.17
2023-03-16T12:43:09.745Z,10.70
2023-03-16T12:45:38.685Z,11.20
2023-03-16T12:48:19.687Z,10.77
2023-03-16T12:50:49.030Z,10.47
2023-03-16T12:53:30.305Z,12.10
2023-03-16T12:55:57.847Z,12.27
2023-03-16T12:58:26.310Z,11.63
2023-03-16T13:00:58.349Z,11.67
2023-03-16T13:03:26.052Z,10.50
2023-03-16T13:05:55.821Z,10.23
2023-03-16T13:08:23.444Z,10.50
2023-03-16T13:11:00.458Z,11.80
2023-03-16T13:13:28.315Z,11.77
2023-03-16T13:16:10.074Z,10.50
2023-03-16T13:18:40.002Z,12.43
2023-03-16T13:21:21.584Z,11.03
2023-03-16T13:23:57.236Z,9.80
2023-03-16T13:26:44.171Z,10.97
2023-03-16T13:29:22.934Z,11.17
2023-03-16T13:31:50.966Z,12.73
2023-03-16T13:34:26.240Z,10.23
2023-03-16T13:36:56.851Z,10.23
2023-03-16T13:39:28.609Z,12.37
2023-03-16T13:42:06.578Z,11.83
2023-03-16T13:44:34.676Z,8.90
2023-03-16T13:47:05.819Z,10.30
2023-03-16T13:49:33.356Z,10.10
2023-03-16T13:52:02.227Z,11.00
2023-03-16T13:54:30.692Z,8.90
2023-03-16T13:56:59.008Z,10.17
2023-03-16T13:59:26.687Z,9.00
2023-03-16T14:02:01.479Z,10.70
2023-03-16T14:04:30.549Z,9.67
2023-03-16T14:07:02.184Z,11.57
2023-03-16T14:09:31.532Z,10.00
2023-03-16T14:11:58.886Z,10.67
2023-03-16T14:14:28.717Z,10.07
2023-03-16T14:17:00.351Z,9.67
2023-03-16T14:19:29.403Z,9.47
2023-03-16T14:21:56.747Z,9.80
2023-03-16T14:24:32.109Z,9.53
2023-03-16T14:27:01.175Z,9.43
2023-03-16T14:29:31.267Z,10.17
2023-03-16T14:32:03.500Z,9.83
2023-03-16T14:34:33.250Z,11.23
2023-03-16T14:37:11.175Z,9.00
2023-03-16T14:39:40.350Z,8.27
2023-03-16T14:42:09.200Z,10.30
2023-03-16T14:44:38.327Z,10.50
2023-03-16T14:47:07.023Z,8.33
2023-03-16T14:49:36.410Z,10.77
2023-03-16T14:52:05.295Z,11.37
2023-03-16T14:54:32.636Z,10.10
2023-03-16T14:57:01.441Z,10.13
2023-03-16T14:59:28.776Z,9.13
2023-03-16T15:01:56.367Z,12.93
2023-03-16T15:04:34.823Z,9.50
2023-03-16T15:07:04.006Z,8.53
2023-03-16T15:09:35.623Z,10.03
2023-03-16T15:12:03.036Z,7.47
2023-03-16T15:14:48.071Z,9.37
2023-03-16T15:17:15.479Z,7.97
2023-03-16T15:19:42.859Z,8.43
2023-03-16T15:22:12.239Z,8.77
2023-03-16T15:24:39.979Z,8.80
2023-03-16T15:27:08.834Z,8.47
2023-03-16T15:29:36.414Z,8.00
2023-03-16T15:32:03.930Z,8.83
2023-03-16T15:34:31.244Z,8.90
2023-03-16T15:36:58.734Z,10.90
2023-03-16T15:39:26.020Z,14.57
2023-03-16T15:41:53.291Z,9.00
2023-03-16T15:44:20.970Z,9.17
2023-03-16T15:46:48.570Z,8.97
2023-03-16T15:49:16.815Z,12.83
2023-03-16T15:51:44.345Z,9.33
2023-03-16T15:54:11.872Z,12.73
2023-03-16T15:56:53.221Z,9.07
2023-03-16T15:59:16.843Z,10.33
2023-03-16T16:01:46.009Z,8.80
2023-03-16T16:04:15.549Z,10.57
2023-03-16T16:06:43.373Z,30.10
2023-03-16T16:09:10.806Z,16.73
2023-03-16T16:11:38.423Z,11.07
2023-03-16T16:14:05.760Z,8.60
2023-03-16T16:16:34.262Z,12.37
2023-03-16T16:19:01.670Z,9.60
2023-03-16T16:21:31.305Z,11.90
2023-03-16T16:23:58.942Z,10.77
2023-03-16T16:26:46.962Z,14.87
2023-03-16T16:29:00.458Z,9.67
2023-03-16T16:31:29.282Z,8.80
2023-03-16T16:33:56.987Z,22.30
2023-03-16T16:36:25.098Z,9.23
2023-03-16T16:38:54.718Z,10.23
2023-03-16T16:41:23.639Z,14.90
2023-03-16T16:43:52.304Z,8.63
2023-03-16T16:46:20.947Z,16.40
2023-03-16T16:48:56.176Z,12.50
2023-03-16T16:51:24.823Z,8.80
2023-03-16T16:53:56.701Z,9.30
2023-03-16T16:56:28.368Z,11.03
2023-03-16T16:58:56.278Z,8.87
2023-03-16T17:01:32.866Z,10.50
2023-03-16T17:04:01.141Z,10.43
2023-03-16T17:06:28.884Z,10.97
2023-03-16T17:08:56.353Z,10.13
2023-03-16T17:11:29.001Z,12.40
2023-03-16T17:13:57.974Z,9.00
2023-03-16T17:16:28.896Z,12.03
2023-03-16T17:18:56.298Z,8.90
2023-03-16T17:21:24.957Z,10.33
2023-03-16T17:23:52.660Z,8.80
2023-03-16T17:26:21.624Z,10.23
2023-03-16T17:28:51.704Z,8.80
2023-03-16T17:31:20.870Z,9.37
2023-03-16T17:33:48.347Z,9.50
2023-03-16T17:36:16.435Z,9.10
2023-03-16T17:38:43.759Z,10.57
2023-03-16T17:41:22.406Z,11.83
2023-03-16T17:43:50.984Z,9.47
2023-03-16T17:46:20.353Z,10.53
2023-03-16T17:48:48.164Z,9.83
2023-03-16T17:51:16.493Z,10.00
2023-03-16T17:53:44.463Z,10.60
2023-03-16T17:56:22.643Z,12.90
2023-03-16T17:58:52.398Z,14.90
2023-03-16T18:01:24.621Z,10.67
2023-03-16T18:03:52.256Z,10.70
2023-03-16T18:06:20.939Z,14.37
2023-03-16T18:08:48.642Z,10.70
2023-03-16T18:11:17.549Z,10.20
2023-03-16T18:13:44.982Z,9.70
2023-03-16T18:16:13.876Z,10.20
2023-03-16T18:18:42.611Z,11.93
2023-03-16T18:21:11.494Z,9.50
2023-03-16T18:23:39.502Z,13.27
2023-03-16T18:26:07.678Z,12.50
2023-03-16T18:28:35.512Z,10.93
2023-03-16T18:31:04.958Z,9.37
2023-03-16T18:33:36.675Z,10.97
2023-03-16T18:36:05.679Z,10.73
2023-03-16T18:38:34.416Z,9.70
2023-03-16T18:41:03.277Z,10.67
2023-03-16T18:43:30.604Z,9.30
2023-03-16T18:45:58.321Z,10.37
2023-03-16T18:48:27.204Z,17.30
2023-03-16T18:50:54.550Z,18.40
2023-03-16T18:53:22.348Z,8.53
2023-03-16T18:55:50.532Z,12.57
2023-03-16T18:58:22.608Z,9.73
2023-03-16T19:00:57.385Z,9.47
2023-03-16T19:03:32.142Z,11.47
2023-03-16T19:06:00.444Z,12.43
2023-03-16T19:08:33.140Z,13.00
2023-03-16T19:11:01.924Z,11.90
2023-03-16T19:13:30.122Z,13.80
2023-03-16T19:15:57.808Z,10.10
2023-03-16T19:18:27.564Z,8.90
2023-03-16T19:20:56.686Z,11.00
2023-03-16T19:23:30.282Z,10.60
2023-03-16T19:25:58.568Z,11.20
2023-03-16T19:28:29.114Z,10.97
2023-03-16T19:30:57.226Z,10.67
2023-03-16T19:33:28.943Z,10.23
2023-03-16T19:35:56.929Z,12.97
2023-03-16T19:38:25.621Z,11.33
2023-03-16T19:40:54.578Z,11.37
2023-03-16T19:43:22.412Z,11.80
2023-03-16T19:45:51.396Z,13.37
2023-03-16T19:48:23.242Z,9.77
2023-03-16T19:50:51.047Z,9.57
2023-03-16T19:53:23.120Z,13.83
2023-03-16T19:55:51.758Z,8.87
2023-03-16T19:58:26.479Z,9.57
2023-03-16T20:00:54.311Z,12.40
2023-03-16T20:03:21.889Z,10.90
2023-03-16T20:05:49.260Z,12.87
2023-03-16T20:08:21.024Z,11.27
2023-03-16T20:10:48.838Z,9.77
2023-03-16T20:13:16.527Z,10.30
2023-03-16T20:15:44.142Z,13.17
2023-03-16T20:18:14.321Z,9.63
2023-03-16T20:20:42.534Z,10.43
2023-03-16T20:23:24.260Z,10.67
2023-03-16T20:25:52.527Z,10.47
2023-03-16T20:28:21.430Z,9.87
2023-03-16T20:30:49.334Z,11.60
2023-03-16T20:33:22.746Z,10.23
2023-03-16T20:35:52.625Z,10.07
2023-03-16T20:38:20.417Z,11.83
2023-03-16T20:40:49.126Z,11.30
2023-03-16T20:43:26.834Z,9.80
2023-03-16T20:45:55.357Z,10.10
2023-03-16T20:48:24.608Z,13.13
2023-03-16T20:50:56.033Z,11.70
2023-03-16T20:53:23.712Z,10.87
2023-03-16T20:55:51.868Z,10.07
2023-03-16T20:58:20.751Z,11.03
2023-03-16T21:00:49.797Z,11.40
2023-03-16T21:03:18.690Z,11.67
2023-03-16T21:05:46.147Z,10.47
2023-03-16T21:08:14.370Z,10.67
2023-03-16T21:10:42.821Z,11.97
2023-03-16T21:13:23.659Z,12.20
2023-03-16T21:15:51.512Z,11.53
2023-03-16T21:18:20.540Z,11.53
2023-03-16T21:20:48.748Z,9.73
2023-03-16T21:23:17.675Z,15.23
2023-03-16T21:25:46.492Z,12.10
2023-03-16T21:28:14.213Z,14.77
2023-03-16T21:30:43.065Z,11.63
2023-03-16T21:33:14.607Z,13.53
2023-03-16T21:35:41.978Z,15.23
2023-03-16T21:38:16.784Z,17.73
2023-03-16T21:40:44.517Z,16.43
2023-03-16T21:43:12.271Z,13.60
2023-03-16T21:45:40.126Z,15.73
2023-03-16T21:48:08.568Z,18.30
2023-03-16T21:50:36.710Z,16.10
2023-03-16T21:53:04.419Z,16.93
2023-03-16T21:55:32.215Z,15.80
2023-03-16T21:57:59.752Z,13.13
2023-03-16T22:00:31.837Z,12.47
2023-03-16T22:03:00.913Z,11.50
2023-03-16T22:05:32.758Z,12.00
2023-03-16T22:08:01.646Z,13.57
2023-03-16T22:10:29.850Z,13.87
2023-03-16T22:12:57.818Z,13.50
2023-03-16T22:15:25.735Z,11.17
2023-03-16T22:17:53.937Z,12.23
2023-03-16T22:20:22.932Z,11.47
2023-03-16T22:22:50.538Z,11.53
2023-03-16T22:25:19.406Z,14.17
2023-03-16T22:27:47.222Z,12.17
2023-03-16T22:30:19.444Z,14.80
2023-03-16T22:32:50.917Z,13.80
2023-03-16T22:35:35.274Z,13.10
2023-03-16T22:38:04.131Z,14.70
2023-03-16T22:40:32.448Z,14.43
2023-03-16T22:43:02.094Z,13.03
2023-03-16T22:45:30.725Z,12.03
2023-03-16T22:47:59.087Z,12.40
2023-03-16T22:50:27.961Z,19.27
2023-03-16T22:52:56.844Z,13.40
2023-03-16T22:55:31.975Z,12.83
2023-03-16T22:58:07.558Z,12.20
2023-03-16T23:00:35.363Z,18.27
2023-03-16T23:03:02.881Z,12.33
2023-03-16T23:05:30.564Z,11.80
2023-03-16T23:07:59.705Z,15.83
2023-03-16T23:10:30.476Z,11.77
2023-03-16T23:12:59.262Z,11.80
2023-03-16T23:15:28.521Z,14.80
2023-03-16T23:17:56.327Z,12.23
2023-03-16T23:20:25.542Z,11.60
2023-03-16T23:22:53.441Z,12.10
2023-03-16T23:25:21.147Z,12.27
2023-03-16T23:27:49.094Z,13.43
2023-03-16T23:30:17.594Z,12.40
2023-03-16T23:32:45.183Z,10.30
2023-03-16T23:35:16.543Z,13.47
2023-03-16T23:37:43.873Z,12.17
2023-03-16T23:40:11.545Z,12.37
2023-03-16T23:42:39.069Z,15.47
2023-03-16T23:45:08.127Z,11.53
2023-03-16T23:47:35.452Z,11.30
2023-03-16T23:50:02.985Z,11.00
2023-03-16T23:52:30.319Z,11.10
2023-03-16T23:54:58.720Z,11.83
2023-03-16T23:57:26.325Z,10.60
2023-03-16T23:59:53.745Z,11.57
